createdAt,value
2019-04-29T00:01:32.844Z,219.63
2019-04-29T00:04:08.035Z,218.00
2019-04-29T00:06:42.904Z,217.23
2019-04-29T00:09:22.130Z,214.77
2019-04-29T00:11:56.936Z,196.67
2019-04-29T00:14:52.390Z,187.90
2019-04-29T00:17:28.868Z,193.23
2019-04-29T00:20:14.360Z,197.90
2019-04-29T00:22:49.235Z,183.40
2019-04-29T00:25:24.434Z,168.50
2019-04-29T00:27:59.586Z,163.93
2019-04-29T00:30:35.084Z,160.07
2019-04-29T00:33:14.300Z,159.63
2019-04-29T00:35:49.214Z,159.67
2019-04-29T00:38:26.249Z,146.27
2019-04-29T00:41:19.418Z,149.60
2019-04-29T00:43:56.094Z,141.07
2019-04-29T00:46:31.479Z,145.43
2019-04-29T00:49:06.841Z,133.10
2019-04-29T00:51:42.349Z,138.27
2019-04-29T00:54:21.101Z,124.63
2019-04-29T00:56:56.702Z,122.63
2019-04-29T00:59:35.222Z,133.73
2019-04-29T01:02:11.473Z,133.10
2019-04-29T01:04:47.349Z,139.37
2019-04-29T01:07:22.457Z,133.03
2019-04-29T01:09:58.949Z,146.30
2019-04-29T01:12:36.468Z,144.97
2019-04-29T01:15:11.556Z,153.27
2019-04-29T01:17:50.575Z,43.47
2019-04-29T01:20:26.646Z,18.67
2019-04-29T01:23:03.292Z,15.43
2019-04-29T01:25:40.744Z,16.00
2019-04-29T01:28:29.277Z,10.90
2019-04-29T01:31:22.531Z,14.07
2019-04-29T01:33:59.327Z,10.97
2019-04-29T01:36:35.448Z,9.60
2019-04-29T01:39:15.123Z,6.70
2019-04-29T01:41:50.175Z,7.50
2019-04-29T01:44:33.298Z,6.87
2019-04-29T01:47:09.783Z,6.70
2019-04-29T01:49:45.394Z,8.80
2019-04-29T01:52:23.826Z,11.33
2019-04-29T01:54:59.165Z,8.63
2019-04-29T01:57:34.710Z,5.83
2019-04-29T02:00:12.353Z,7.43
2019-04-29T02:02:47.847Z,9.43
2019-04-29T02:05:23.053Z,7.53
2019-04-29T02:08:01.264Z,6.77
2019-04-29T02:10:37.672Z,11.70
2019-04-29T02:13:18.083Z,4.70
2019-04-29T02:15:51.771Z,7.17
2019-04-29T02:18:26.723Z,12.40
2019-04-29T02:21:02.037Z,12.97
2019-04-29T02:23:41.378Z,8.70
2019-04-29T02:26:20.612Z,6.33
2019-04-29T02:28:55.880Z,6.37
2019-04-29T02:31:47.627Z,8.10
2019-04-29T02:34:22.894Z,5.17
2019-04-29T02:36:59.676Z,10.43
2019-04-29T02:39:35.713Z,5.07
2019-04-29T02:42:29.103Z,6.30
2019-04-29T02:45:06.084Z,4.70
2019-04-29T02:47:43.301Z,8.07
2019-04-29T02:50:19.361Z,5.43
2019-04-29T02:52:54.796Z,9.27
2019-04-29T02:55:37.700Z,9.53
2019-04-29T02:58:32.599Z,14.00
2019-04-29T03:01:25.798Z,7.37
2019-04-29T03:04:02.865Z,8.07
2019-04-29T03:06:46.288Z,13.40
2019-04-29T03:09:21.640Z,14.87
2019-04-29T03:12:16.049Z,8.30
2019-04-29T03:14:53.195Z,20.50
2019-04-29T03:17:28.305Z,19.60
2019-04-29T03:20:17.459Z,13.20
2019-04-29T03:22:53.643Z,20.47
2019-04-29T03:25:31.170Z,7.77
2019-04-29T03:28:06.038Z,19.57
2019-04-29T03:30:41.151Z,14.20
2019-04-29T03:33:15.998Z,7.60
2019-04-29T03:35:51.255Z,8.83
2019-04-29T03:38:45.755Z,11.10
2019-04-29T03:41:20.514Z,15.77
2019-04-29T03:43:57.777Z,10.63
2019-04-29T03:46:34.372Z,5.37
2019-04-29T03:52:13.224Z,6.60
2019-04-29T03:54:48.348Z,11.27
2019-04-29T03:57:23.471Z,9.80
2019-04-29T03:59:58.325Z,6.53
2019-04-29T04:02:50.997Z,9.43
2019-04-29T04:05:27.263Z,10.03
2019-04-29T04:08:04.739Z,10.83
2019-04-29T04:10:39.853Z,14.10
2019-04-29T04:13:17.449Z,9.23
2019-04-29T04:15:53.019Z,18.57
2019-04-29T04:18:33.657Z,6.10
2019-04-29T04:21:27.349Z,11.63
2019-04-29T04:24:02.791Z,7.97
2019-04-29T04:26:54.943Z,5.87
2019-04-29T04:29:31.290Z,13.80
2019-04-29T04:32:06.065Z,11.33
2019-04-29T04:34:41.462Z,5.47
2019-04-29T04:37:16.222Z,12.93
2019-04-29T04:39:51.637Z,19.57
2019-04-29T04:42:29.587Z,4.73
2019-04-29T04:45:03.100Z,14.93
2019-04-29T04:47:38.235Z,8.90
2019-04-29T04:50:13.620Z,8.70
2019-04-29T04:52:48.359Z,4.97
2019-04-29T04:55:24.589Z,8.80
2019-04-29T04:57:59.311Z,4.27
2019-04-29T05:00:35.639Z,5.80
2019-04-29T05:03:11.110Z,7.53
2019-04-29T05:05:46.203Z,3.50
2019-04-29T05:08:21.182Z,11.07
2019-04-29T05:10:56.417Z,8.70
2019-04-29T05:13:31.197Z,6.77
2019-04-29T05:16:06.902Z,7.30
2019-04-29T05:18:42.465Z,12.60
2019-04-29T05:21:17.484Z,11.73
2019-04-29T05:23:55.800Z,14.80
2019-04-29T05:26:29.795Z,8.30
2019-04-29T05:29:04.753Z,12.43
2019-04-29T05:32:02.225Z,9.77
2019-04-29T05:34:41.876Z,8.97
2019-04-29T05:37:22.703Z,13.37
2019-04-29T05:39:57.708Z,7.00
2019-04-29T05:42:32.916Z,5.70
2019-04-29T05:45:09.961Z,11.77
2019-04-29T05:47:46.532Z,11.27
2019-04-29T05:50:28.405Z,10.90
2019-04-29T05:53:18.116Z,8.17
2019-04-29T05:55:53.070Z,13.40
2019-04-29T05:58:28.359Z,8.43
2019-04-29T06:01:04.336Z,8.70
2019-04-29T06:03:39.824Z,6.83
2019-04-29T06:06:14.923Z,6.53
2019-04-29T06:08:50.570Z,9.00
2019-04-29T06:11:25.728Z,12.67
2019-04-29T06:14:00.963Z,8.53
2019-04-29T06:16:36.236Z,8.23
2019-04-29T06:19:13.283Z,5.87
2019-04-29T06:21:48.133Z,6.83
2019-04-29T06:24:23.514Z,5.73
2019-04-29T06:26:58.548Z,4.07
2019-04-29T06:29:33.601Z,8.17
2019-04-29T06:32:08.888Z,6.30
2019-04-29T06:34:44.141Z,7.00
2019-04-29T06:37:19.216Z,9.30
2019-04-29T06:39:54.403Z,4.73
2019-04-29T06:42:29.525Z,7.80
2019-04-29T06:45:04.759Z,4.67
2019-04-29T06:47:40.865Z,7.77
2019-04-29T06:50:17.097Z,8.67
2019-04-29T06:52:52.547Z,2.27
2019-04-29T06:55:27.915Z,7.37
2019-04-29T06:58:03.031Z,5.17
2019-04-29T07:00:39.605Z,5.43
2019-04-29T07:03:15.175Z,12.60
2019-04-29T07:05:52.139Z,5.40
2019-04-29T07:08:28.078Z,3.77
2019-04-29T07:11:05.469Z,6.87
2019-04-29T07:13:41.220Z,7.70
2019-04-29T07:16:21.699Z,11.00
2019-04-29T07:18:54.570Z,5.27
2019-04-29T07:21:31.186Z,6.97
2019-04-29T07:24:09.864Z,6.03
2019-04-29T07:26:46.221Z,5.43
2019-04-29T07:29:30.750Z,9.67
2019-04-29T07:32:04.675Z,6.63
2019-04-29T07:34:40.457Z,11.70
2019-04-29T07:37:21.793Z,7.90
2019-04-29T07:39:56.825Z,6.23
2019-04-29T07:42:33.358Z,8.30
2019-04-29T07:45:15.748Z,5.77
2019-04-29T07:47:56.685Z,6.77
2019-04-29T07:50:28.674Z,6.47
2019-04-29T07:53:04.467Z,8.27
2019-04-29T07:55:39.799Z,5.83
2019-04-29T07:58:15.147Z,6.20
2019-04-29T08:00:50.105Z,12.03
2019-04-29T08:03:26.735Z,15.67
2019-04-29T08:06:02.203Z,8.93
2019-04-29T08:08:38.757Z,6.60
2019-04-29T08:11:14.043Z,9.40
2019-04-29T08:13:51.192Z,7.43
2019-04-29T08:16:26.124Z,8.03
2019-04-29T08:19:04.443Z,8.47
2019-04-29T08:21:57.292Z,6.97
2019-04-29T08:24:33.135Z,7.43
2019-04-29T08:27:08.175Z,8.07
2019-04-29T08:29:43.458Z,6.93
2019-04-29T08:32:19.858Z,9.40
2019-04-29T08:34:57.920Z,4.77
2019-04-29T08:37:32.147Z,11.77
2019-04-29T08:40:16.031Z,6.97
2019-04-29T08:42:46.940Z,9.00
2019-04-29T08:45:27.969Z,9.50
2019-04-29T08:48:03.898Z,7.93
2019-04-29T08:50:58.342Z,9.43
2019-04-29T08:53:33.324Z,5.80
2019-04-29T08:56:10.147Z,7.47
2019-04-29T08:58:49.031Z,5.90
2019-04-29T09:01:24.569Z,9.83
2019-04-29T09:04:00.873Z,12.57
2019-04-29T09:06:37.828Z,9.13
2019-04-29T09:09:27.976Z,6.00
2019-04-29T09:11:49.662Z,9.50
2019-04-29T09:14:24.830Z,7.63
2019-04-29T09:17:00.671Z,14.27
2019-04-29T09:19:39.152Z,11.93
2019-04-29T09:22:14.073Z,8.07
2019-04-29T09:25:07.773Z,5.60
2019-04-29T09:27:44.934Z,9.40
2019-04-29T09:30:22.223Z,13.30
2019-04-29T09:32:58.410Z,6.17
2019-04-29T09:35:38.527Z,7.00
2019-04-29T09:38:10.374Z,15.90
2019-04-29T09:40:54.632Z,7.50
2019-04-29T09:43:33.917Z,8.37
2019-04-29T09:46:13.058Z,10.90
2019-04-29T09:49:10.255Z,6.73
2019-04-29T09:51:47.203Z,9.90
2019-04-29T09:54:22.988Z,7.53
2019-04-29T09:56:58.591Z,5.33
2019-04-29T09:59:35.086Z,11.87
2019-04-29T10:02:26.496Z,8.03
2019-04-29T10:05:04.084Z,7.57
2019-04-29T10:07:38.771Z,9.33
2019-04-29T10:10:14.657Z,10.10
2019-04-29T10:12:49.724Z,8.47
2019-04-29T10:15:26.867Z,5.23
2019-04-29T10:18:09.286Z,8.53
2019-04-29T10:20:58.602Z,7.10
2019-04-29T10:23:39.017Z,8.47
2019-04-29T10:26:14.447Z,7.77
2019-04-29T10:29:03.765Z,6.77
2019-04-29T10:31:41.800Z,9.47
2019-04-29T10:34:18.378Z,7.00
2019-04-29T10:36:54.896Z,5.17
2019-04-29T10:39:33.425Z,7.93
2019-04-29T10:42:11.134Z,13.73
2019-04-29T10:45:07.456Z,6.03
2019-04-29T10:47:58.906Z,6.93
2019-04-29T10:50:39.581Z,9.37
2019-04-29T10:53:17.358Z,8.53
2019-04-29T10:55:53.816Z,5.20
2019-04-29T10:58:38.072Z,6.97
2019-04-29T11:02:00.695Z,11.37
2019-04-29T11:04:31.636Z,6.83
2019-04-29T11:07:13.841Z,7.37
2019-04-29T11:09:46.378Z,10.60
2019-04-29T11:12:23.905Z,8.93
2019-04-29T11:15:01.725Z,7.90
2019-04-29T11:17:39.598Z,6.63
2019-04-29T11:20:21.166Z,6.07
2019-04-29T11:23:09.794Z,6.90
2019-04-29T11:25:51.061Z,10.23
2019-04-29T11:28:25.472Z,12.23
2019-04-29T11:31:02.677Z,8.10
2019-04-29T11:33:41.658Z,8.10
2019-04-29T11:36:18.779Z,6.97
2019-04-29T11:38:55.423Z,6.70
2019-04-29T11:41:34.139Z,7.50
2019-04-29T11:44:10.219Z,8.30
2019-04-29T11:46:48.950Z,5.60
2019-04-29T11:49:35.151Z,10.33
2019-04-29T11:52:12.273Z,8.70
2019-04-29T11:54:54.779Z,10.20
2019-04-29T11:57:40.979Z,7.83
2019-04-29T12:00:17.614Z,12.57
2019-04-29T12:03:51.532Z,13.40
2019-04-29T12:06:25.038Z,10.17
2019-04-29T12:09:06.609Z,13.07
2019-04-29T12:11:41.898Z,13.57
2019-04-29T12:14:33.715Z,12.83
2019-04-29T12:17:24.388Z,8.47
2019-04-29T12:20:04.033Z,11.00
2019-04-29T12:22:48.025Z,12.03
2019-04-29T12:25:17.440Z,16.13
2019-04-29T12:28:01.256Z,10.67
2019-04-29T12:30:34.590Z,12.43
2019-04-29T12:33:09.142Z,11.50
2019-04-29T12:35:52.106Z,13.63
2019-04-29T12:38:39.684Z,16.40
2019-04-29T12:41:30.361Z,12.97
2019-04-29T12:44:05.345Z,12.33
2019-04-29T12:46:42.422Z,12.47
2019-04-29T12:49:17.598Z,9.13
2019-04-29T12:51:53.121Z,15.03
2019-04-29T12:54:29.150Z,13.70
2019-04-29T12:57:04.209Z,13.30
2019-04-29T12:59:39.086Z,12.00
2019-04-29T13:02:19.738Z,14.50
2019-04-29T13:04:59.548Z,12.70
2019-04-29T13:07:42.650Z,12.57
2019-04-29T13:10:25.988Z,20.90
2019-04-29T13:13:01.231Z,19.03
2019-04-29T13:15:49.908Z,12.87
2019-04-29T13:18:48.755Z,16.70
2019-04-29T13:21:21.680Z,10.67
2019-04-29T13:24:12.536Z,13.27
2019-04-29T13:26:37.263Z,14.53
2019-04-29T13:29:25.875Z,11.33
2019-04-29T13:31:47.367Z,14.07
2019-04-29T13:34:24.889Z,9.20
2019-04-29T13:37:07.366Z,11.47
2019-04-29T13:39:40.749Z,9.70
2019-04-29T13:42:15.498Z,13.20
2019-04-29T13:45:05.453Z,14.43
2019-04-29T13:47:35.990Z,13.50
2019-04-29T13:50:21.451Z,10.33
2019-04-29T13:52:51.998Z,20.93
2019-04-29T13:55:47.336Z,19.43
2019-04-29T13:58:04.042Z,14.07
2019-04-29T14:00:40.913Z,14.33
2019-04-29T14:03:17.173Z,17.93
2019-04-29T14:06:03.579Z,13.23
2019-04-29T14:08:46.659Z,14.30
2019-04-29T14:11:21.869Z,13.30
2019-04-29T14:13:58.625Z,15.07
2019-04-29T14:17:06.768Z,9.67
2019-04-29T14:19:41.065Z,12.67
2019-04-29T14:22:05.023Z,16.67
2019-04-29T14:24:40.883Z,12.43
2019-04-29T14:27:24.731Z,13.70
2019-04-29T14:30:07.440Z,9.87
2019-04-29T14:32:42.289Z,13.43
2019-04-29T14:35:36.333Z,13.33
2019-04-29T14:38:12.101Z,12.10
2019-04-29T14:40:47.454Z,17.37
2019-04-29T14:43:40.706Z,14.63
2019-04-29T14:46:17.065Z,17.00
2019-04-29T14:48:59.551Z,14.63
2019-04-29T14:51:36.706Z,18.30
2019-04-29T14:54:09.692Z,11.57
2019-04-29T14:56:44.648Z,12.67
2019-04-29T14:59:20.060Z,14.27
2019-04-29T15:01:59.497Z,15.47
2019-04-29T15:04:35.781Z,16.10
2019-04-29T15:07:10.887Z,9.57
2019-04-29T15:09:58.712Z,13.53
2019-04-29T15:12:51.851Z,13.60
2019-04-29T15:15:35.426Z,14.70
2019-04-29T15:18:18.567Z,10.43
2019-04-29T15:20:51.936Z,14.73
2019-04-29T15:23:29.261Z,13.60
2019-04-29T15:26:03.829Z,20.97
2019-04-29T15:28:54.310Z,11.17
2019-04-29T15:31:30.285Z,17.53
2019-04-29T15:34:08.791Z,18.77
2019-04-29T15:36:42.034Z,18.93
2019-04-29T15:39:17.443Z,29.57
2019-04-29T15:41:54.657Z,15.80
2019-04-29T15:44:29.283Z,17.87
2019-04-29T15:47:04.645Z,19.10
2019-04-29T15:49:39.647Z,22.00
2019-04-29T15:52:16.054Z,24.40
2019-04-29T15:54:52.400Z,23.53
2019-04-29T15:57:28.095Z,22.90
2019-04-29T16:00:20.187Z,20.90
2019-04-29T16:02:43.262Z,31.70
2019-04-29T16:05:34.649Z,28.17
2019-04-29T16:08:29.417Z,22.17
2019-04-29T16:11:13.186Z,21.90
2019-04-29T16:14:07.962Z,26.27
2019-04-29T16:16:25.206Z,21.60
2019-04-29T16:19:08.363Z,19.07
2019-04-29T16:21:41.558Z,22.50
2019-04-29T16:24:26.398Z,20.30
2019-04-29T16:26:53.750Z,30.10
2019-04-29T16:29:27.433Z,19.73
2019-04-29T16:32:04.879Z,25.83
2019-04-29T16:34:44.631Z,21.97
2019-04-29T16:37:19.319Z,26.23
2019-04-29T16:39:59.759Z,23.83
2019-04-29T16:42:34.907Z,26.30
2019-04-29T16:45:12.122Z,21.40
2019-04-29T16:47:48.649Z,25.67
2019-04-29T16:50:23.930Z,27.77
2019-04-29T16:52:58.659Z,22.40
2019-04-29T16:55:35.786Z,29.17
2019-04-29T16:58:17.820Z,26.67
2019-04-29T17:00:52.168Z,28.10
2019-04-29T17:03:23.004Z,28.40
2019-04-29T17:05:58.123Z,31.00
2019-04-29T17:08:34.696Z,27.93
2019-04-29T17:11:17.765Z,29.13
2019-04-29T17:13:53.392Z,25.30
2019-04-29T17:16:29.641Z,23.87
2019-04-29T17:19:04.981Z,27.27
2019-04-29T17:21:40.247Z,21.03
2019-04-29T17:24:15.241Z,29.13
2019-04-29T17:26:52.031Z,27.53
2019-04-29T17:29:39.132Z,21.03
2019-04-29T17:32:15.493Z,26.93
2019-04-29T17:34:59.073Z,22.23
2019-04-29T17:37:28.314Z,23.13
2019-04-29T17:40:03.425Z,28.80
2019-04-29T17:42:41.217Z,27.37
2019-04-29T17:45:27.278Z,24.40
2019-04-29T17:47:57.576Z,21.73
2019-04-29T17:50:34.020Z,23.37
2019-04-29T17:53:11.006Z,40.23
2019-04-29T17:55:46.895Z,22.57
2019-04-29T17:58:22.921Z,24.27
2019-04-29T18:01:12.032Z,20.00
2019-04-29T18:04:07.858Z,19.13
2019-04-29T18:06:44.135Z,21.30
2019-04-29T18:09:21.350Z,21.23
2019-04-29T18:11:57.847Z,21.10
2019-04-29T18:14:37.888Z,21.63
2019-04-29T18:17:10.212Z,19.67
2019-04-29T18:19:47.164Z,28.40
2019-04-29T18:22:30.326Z,21.23
2019-04-29T18:25:40.588Z,21.07
2019-04-29T18:28:16.275Z,21.60
2019-04-29T18:30:54.472Z,15.83
2019-04-29T18:33:46.859Z,22.17
2019-04-29T18:36:24.350Z,19.13
2019-04-29T18:38:58.284Z,18.50
2019-04-29T18:41:33.235Z,19.00
2019-04-29T18:44:18.606Z,16.03
2019-04-29T18:46:53.208Z,12.47
2019-04-29T18:49:25.725Z,22.53
2019-04-29T18:52:02.259Z,13.13
2019-04-29T18:54:38.283Z,15.27
2019-04-29T18:57:25.146Z,16.93
2019-04-29T18:59:49.987Z,15.37
2019-04-29T19:02:27.475Z,18.00
2019-04-29T19:05:06.774Z,14.60
2019-04-29T19:07:52.407Z,17.93
2019-04-29T19:10:19.139Z,13.73
2019-04-29T19:13:00.034Z,17.20
2019-04-29T19:15:30.935Z,14.07
2019-04-29T19:18:07.868Z,16.63
2019-04-29T19:20:46.048Z,18.40
2019-04-29T19:23:22.411Z,18.10
2019-04-29T19:25:54.827Z,16.87
2019-04-29T19:28:32.314Z,13.70
2019-04-29T19:31:09.303Z,14.30
2019-04-29T19:33:42.858Z,15.03
2019-04-29T19:36:21.174Z,13.30
2019-04-29T19:38:55.061Z,18.33
2019-04-29T19:41:30.298Z,16.20
2019-04-29T19:44:07.888Z,16.10
2019-04-29T19:46:41.959Z,15.17
2019-04-29T19:49:17.552Z,13.33
2019-04-29T19:51:52.392Z,20.40
2019-04-29T19:54:28.577Z,25.80
2019-04-29T19:57:07.260Z,14.80
2019-04-29T19:59:49.904Z,18.27
2019-04-29T20:02:17.353Z,18.10
2019-04-29T20:04:58.913Z,18.30
2019-04-29T20:07:31.056Z,14.80
2019-04-29T20:10:10.196Z,19.20
2019-04-29T20:12:46.216Z,20.27
2019-04-29T20:15:19.900Z,19.20
2019-04-29T20:18:13.135Z,23.33
2019-04-29T20:20:52.328Z,16.40
2019-04-29T20:23:28.062Z,24.17
2019-04-29T20:26:13.804Z,24.67
2019-04-29T20:28:40.199Z,19.43
2019-04-29T20:31:21.065Z,19.27
2019-04-29T20:33:51.651Z,19.67
2019-04-29T20:36:38.487Z,16.43
2019-04-29T20:39:06.592Z,20.73
2019-04-29T20:41:47.102Z,16.53
2019-04-29T20:44:19.923Z,14.23
2019-04-29T20:47:14.096Z,20.77
2019-04-29T20:49:35.002Z,23.60
2019-04-29T20:52:13.160Z,17.37
2019-04-29T20:54:45.229Z,18.70
2019-04-29T20:57:22.124Z,25.73
2019-04-29T20:59:57.137Z,18.00
2019-04-29T21:02:35.301Z,13.63
2019-04-29T21:05:09.918Z,20.23
2019-04-29T21:07:45.859Z,18.20
2019-04-29T21:10:20.917Z,20.30
2019-04-29T21:12:59.410Z,19.47
2019-04-29T21:15:40.470Z,25.60
2019-04-29T21:18:16.024Z,16.90
2019-04-29T21:20:50.932Z,24.53
2019-04-29T21:23:31.527Z,13.63
2019-04-29T21:26:05.297Z,20.33
2019-04-29T21:28:41.784Z,17.87
2019-04-29T21:31:16.637Z,19.93
2019-04-29T21:33:55.387Z,24.60
2019-04-29T21:36:39.867Z,20.33
2019-04-29T21:39:26.327Z,20.53
2019-04-29T21:42:02.131Z,18.27
2019-04-29T21:44:37.244Z,21.43
2019-04-29T21:47:12.163Z,19.43
2019-04-29T21:49:49.938Z,25.73
2019-04-29T21:52:25.372Z,27.03
2019-04-29T21:55:01.055Z,29.27
2019-04-29T21:57:36.199Z,28.40
2019-04-29T22:00:24.070Z,21.57
2019-04-29T22:02:55.305Z,18.27
2019-04-29T22:05:30.613Z,20.33
2019-04-29T22:08:05.698Z,25.30
2019-04-29T22:10:41.377Z,23.03
2019-04-29T22:13:16.320Z,27.40
2019-04-29T22:15:51.779Z,21.93
2019-04-29T22:18:26.757Z,20.50
2019-04-29T22:21:01.770Z,26.17
2019-04-29T22:23:36.594Z,23.53
2019-04-29T22:26:15.851Z,18.50
2019-04-29T22:28:48.884Z,24.13
2019-04-29T22:31:26.907Z,25.73
2019-04-29T22:34:00.189Z,25.87
2019-04-29T22:36:36.037Z,24.40
2019-04-29T22:39:11.209Z,26.70
2019-04-29T22:42:02.621Z,18.03
2019-04-29T22:44:37.653Z,23.70
2019-04-29T22:47:17.284Z,21.77
2019-04-29T22:49:48.958Z,17.77
2019-04-29T22:52:25.520Z,18.37
2019-04-29T22:55:13.180Z,18.97
2019-04-29T22:57:48.506Z,24.63
2019-04-29T23:00:28.000Z,21.27
2019-04-29T23:03:02.392Z,21.53
2019-04-29T23:05:37.838Z,18.10
2019-04-29T23:08:15.137Z,16.17
2019-04-29T23:10:48.778Z,19.53
2019-04-29T23:13:26.758Z,13.17
2019-04-29T23:16:02.176Z,18.47
2019-04-29T23:18:42.054Z,17.87
2019-04-29T23:21:37.516Z,15.40
2019-04-29T23:24:17.334Z,17.07
2019-04-29T23:26:48.107Z,20.73
2019-04-29T23:29:23.156Z,11.40
2019-04-29T23:31:59.729Z,16.13
2019-04-29T23:34:48.292Z,15.57
2019-04-29T23:37:27.625Z,12.43
2019-04-29T23:40:02.368Z,9.00
2019-04-29T23:42:37.257Z,11.23
2019-04-29T23:45:14.602Z,9.37
2019-04-29T23:47:50.335Z,12.93
2019-04-29T23:50:29.350Z,9.37
2019-04-29T23:53:05.705Z,12.03
2019-04-29T23:55:41.267Z,12.77
2019-04-29T23:58:17.313Z,15.00
